Terminal Aerodrome Forecast
Issued by NWS

Home | Current Version | Previous Version | Text Only | Print | Product List | Glossary On
Versions: 1 2 3 4 5 6 7 8 9 10 11 12 13 14 15 16 17 18 19
168
FTUS41 KBTV 290151 AAA
TAFMPV
TAF AMD
KMPV 290151Z 2902/2924 00000KT P6SM VCSH OVC010
      TEMPO 2902/2906 1/2SM -DZ FG BKN002
     FM290600 VRB03KT P6SM OVC015
     FM291600 33010KT P6SM BKN035
     FM292100 33011G19KT P6SM BKN035=

USA.gov is the U.S. government's official web portal to all federal, state and local government web resources and services.